Aérodrome :
LOGIN :

S'inscrire | Disclaimer

   EN    FR    IT 

 










Légende :    VFR   VFR Marginal   IFR   IFR Intensif   IFR Très Intensif
Visi : 
Plafond : 
>= 8 km
>= 3000ft
5 à 8 km
1000 à 3000 ft
1500m à 5 km
500 à 1000 ft
800 à 1500m
200 à 500 ft
< 800m
< 200 ft
Symboles :   Orages  Brouillard  Fortes neiges  Fortes précipitations  Vent > 20 kt
SIGMETs :   Divers  Orages  Givrage  Turbulence  Onde Orograph.  Cendres Volcan.







- Altitude de l'aérodrome : 302 ft
- Code IATA : MAH


LEMH - Menorca

DERNIER METAR :
  • 121330Z 35007KT 330V030 9999 FEW020 SCT035 13/08 Q1013

METARs EXPIRÉS :
  • 121300Z 35009KT 320V020 9999 FEW020 SCT035 13/08 Q1013
  • 121230Z 34008KT 320V020 9999 FEW020 SCT035 13/09 Q1012
  • 121200Z 34008KT 320V020 9999 FEW020 SCT035 13/09 Q1012
  • 121130Z 30009KT 260V350 9999 FEW020 FEW028TCU BKN035 13/09 Q1012
  • 121100Z VRB01KT 9999 FEW020 FEW028TCU BKN035 14/10 Q1012 RESH

TAF AMD TAF LEMH
Valide du 12 à 09h jusqu'au 13 à 09h UTC


120952Z 1209/1309 31007KT 9999 SCT030 TX15/1209Z TN06/1306Z
BECMG 1212/1214 36010KT
TEMPO 1209/1216 4000 SHRA FEW020TCU BKN030
BECMG 1302/1304 36002KT
Pas de NOTAMs connus pour ce terrain.
1 SIGMET publié pour la FIR Barcelona (LECB) :
 
Turbulence forte
LECB SIGMET 2 VALID 121200/121600 LEVA
LECB BARCELONA FIR/UIR SEV TURB FCST ENTIRE FIR FL200/300 MOV E 20KT NC=



MET'MAP, la Météo Aéronautique d'un coup d'oeil ! - Copyright ORBIFLY Décembre 2007 - Disclaimer

ORBIFLY MET'MAP TEAM :

Programmation & Développement : Alexandra Zaïnal
Conception & Développement : Baudouin d'Aumeries
Co-Programmation & Développement : Marc-Olivier Méhu
Soutien technique & logistique : Manuel Goepfert

Contact : metmap@orbifly.com




SOURCES & CREDITS :

   NOAA